Time;durP1;ratioP1;P1;durP2;ratioP2;P2;SDS_P1;SDS_P2;PMS_P1;PMS_P2;Temp;Humidity;BMP_temperature;BMP_pressure;BME280_temperature;BME280_humidity;BME280_pressure;Samples;Min_cycle;Max_cycle;Signal;HPM_P1;HPM_P2
2021/12/30 00:01:42;;;;;;;42.80;25.97;;;5.60;67.40;;;;;;6336523;28;20308;-56
2021/12/30 00:04:45;;;;;;;43.97;25.83;;;5.70;67.70;;;;;;6336084;27;20327;-57
2021/12/30 00:07:48;;;;;;;40.00;23.93;;;5.90;67.60;;;;;;6330239;27;20312;-56
2021/12/30 00:10:53;;;;;;;38.87;23.63;;;6.00;67.70;;;;;;6336429;27;20746;-58
2021/12/30 00:13:56;;;;;;;47.97;25.73;;;6.00;67.70;;;;;;6335610;27;20236;-58
2021/12/30 00:16:58;;;;;;;37.47;22.57;;;6.00;67.70;;;;;;6331724;27;20285;-57
2021/12/30 00:20:04;;;;;;;35.73;22.57;;;5.80;67.60;;;;;;6337684;27;20288;-60
2021/12/30 00:23:09;;;;;;;34.07;22.70;;;5.70;67.60;;;;;;6334099;28;20735;-57
2021/12/30 00:26:14;;;;;;;36.07;22.70;;;5.90;67.50;;;;;;6332202;27;20640;-56
2021/12/30 00:29:16;;;;;;;35.83;22.47;;;5.80;67.30;;;;;;6334873;28;20411;-56
2021/12/30 00:32:20;;;;;;;37.20;23.93;;;5.90;67.00;;;;;;6332712;28;20246;-56
2021/12/30 00:35:22;;;;;;;37.27;23.13;;;6.00;67.70;;;;;;6332205;28;20713;-57
2021/12/30 00:38:25;;;;;;;39.50;24.87;;;6.00;67.70;;;;;;6327618;28;20236;-57
2021/12/30 00:41:29;;;;;;;41.23;25.23;;;6.10;67.50;;;;;;6334480;28;20247;-57
2021/12/30 00:44:32;;;;;;;39.57;24.27;;;5.80;67.10;;;;;;6336250;28;20228;-57
2021/12/30 00:47:35;;;;;;;39.17;24.30;;;5.80;67.20;;;;;;6334685;28;20239;-56
2021/12/30 00:50:39;;;;;;;37.50;23.13;;;6.00;67.10;;;;;;6345683;27;20465;-57
2021/12/30 00:53:42;;;;;;;36.00;22.50;;;6.20;67.20;;;;;;6334652;28;20235;-57
2021/12/30 00:56:46;;;;;;;40.60;25.20;;;5.40;66.80;;;;;;6329654;28;20326;-56
2021/12/30 00:59:51;;;;;;;35.37;23.27;;;6.10;67.20;;;;;;6324408;28;20228;-55
2021/12/30 01:02:54;;;;;;;32.60;22.40;;;5.90;67.10;;;;;;6331668;28;21019;-57
2021/12/30 01:05:57;;;;;;;43.03;27.50;;;5.90;67.40;;;;;;6328928;27;20233;-57
2021/12/30 01:09:00;;;;;;;39.80;26.40;;;5.90;67.30;;;;;;6334415;27;20318;-57
2021/12/30 01:12:05;;;;;;;39.17;25.70;;;6.20;66.90;;;;;;6334558;28;20781;-56
2021/12/30 01:15:11;;;;;;;38.53;24.90;;;6.00;67.70;;;;;;6330703;28;20255;-56
2021/12/30 01:18:29;;;;;;;35.57;23.37;;;6.20;67.90;;;;;;6337978;27;20239;-58
2021/12/30 01:21:34;;;;;;;34.33;22.93;;;6.00;67.90;;;;;;6333815;28;20234;-57
2021/12/30 01:24:37;;;;;;;31.20;22.97;;;6.00;67.70;;;;;;6327851;27;20665;-57
2021/12/30 01:27:42;;;;;;;30.90;21.97;;;6.00;67.70;;;;;;6329783;27;20478;-55
2021/12/30 01:30:46;;;;;;;31.40;22.37;;;6.10;67.80;;;;;;6329621;28;20310;-57
2021/12/30 01:33:49;;;;;;;31.03;21.70;;;6.00;67.70;;;;;;6334683;28;20242;-56
2021/12/30 01:36:51;;;;;;;33.10;21.77;;;6.10;67.80;;;;;;6333318;27;20497;-56
2021/12/30 01:39:54;;;;;;;30.07;22.00;;;6.00;67.80;;;;;;6327146;28;20292;-56
2021/12/30 01:42:58;;;;;;;27.73;21.50;;;6.00;67.80;;;;;;6333890;28;20254;-57
2021/12/30 01:46:02;;;;;;;28.43;21.27;;;6.20;67.90;;;;;;6332938;28;20311;-57
2021/12/30 01:49:05;;;;;;;29.93;21.43;;;6.00;67.70;;;;;;6340734;27;20231;-57
2021/12/30 01:52:08;;;;;;;25.27;20.03;;;5.90;67.70;;;;;;6333596;27;20772;-57
2021/12/30 01:55:13;;;;;;;26.13;19.07;;;5.90;67.60;;;;;;6337956;27;20228;-58
2021/12/30 01:58:18;;;;;;;26.17;20.27;;;6.20;67.90;;;;;;6328334;28;20240;-56
2021/12/30 02:01:21;;;;;;;22.87;19.77;;;5.90;67.70;;;;;;6334752;28;20736;-56
2021/12/30 02:04:25;;;;;;;26.53;20.97;;;6.00;67.70;;;;;;6333911;28;20708;-57
2021/12/30 02:07:28;;;;;;;25.90;19.87;;;6.00;67.80;;;;;;6324733;28;20397;-57
2021/12/30 02:10:31;;;;;;;26.77;19.93;;;5.90;67.60;;;;;;6333209;28;20809;-57
2021/12/30 02:13:35;;;;;;;26.87;21.07;;;5.90;67.60;;;;;;6335292;28;20232;-57
2021/12/30 02:16:38;;;;;;;25.27;20.60;;;5.80;67.60;;;;;;6334340;28;20316;-59
2021/12/30 02:19:41;;;;;;;26.00;19.80;;;5.80;68.30;;;;;;6347157;27;20299;-57
2021/12/30 02:22:45;;;;;;;25.37;20.07;;;6.10;67.90;;;;;;6338244;28;20519;-58
2021/12/30 02:25:49;;;;;;;25.93;19.30;;;6.00;67.80;;;;;;6337976;27;20266;-56
2021/12/30 02:28:52;;;;;;;24.53;18.77;;;6.20;67.90;;;;;;6338167;27;20280;-56
2021/12/30 02:31:55;;;;;;;22.87;19.10;;;5.90;67.70;;;;;;6331183;28;20297;-58
2021/12/30 02:34:58;;;;;;;24.83;19.77;;;6.10;67.80;;;;;;6330736;27;20240;-58
2021/12/30 02:38:03;;;;;;;23.80;19.30;;;6.20;67.90;;;;;;6338089;28;20331;-57
2021/12/30 02:41:06;;;;;;;21.90;18.60;;;6.20;67.90;;;;;;6336556;28;20231;-56
2021/12/30 02:44:09;;;;;;;23.67;19.23;;;6.10;67.80;;;;;;6337882;28;20232;-56
2021/12/30 02:47:14;;;;;;;23.83;19.97;;;6.30;68.00;;;;;;6339455;27;20700;-57
2021/12/30 02:50:16;;;;;;;26.37;18.90;;;6.20;67.90;;;;;;6343237;27;20232;-57
2021/12/30 02:53:21;;;;;;;25.27;18.87;;;6.40;68.70;;;;;;6338116;28;20638;-57
2021/12/30 02:56:25;;;;;;;22.67;18.03;;;6.30;68.00;;;;;;6343208;27;20724;-59
2021/12/30 02:59:28;;;;;;;24.17;19.03;;;6.10;67.80;;;;;;6336690;28;20789;-57
2021/12/30 03:02:30;;;;;;;26.77;19.77;;;6.30;68.00;;;;;;6339588;27;20475;-56
2021/12/30 03:05:34;;;;;;;25.63;19.60;;;6.30;68.00;;;;;;6329544;27;20235;-57
2021/12/30 03:08:39;;;;;;;22.70;19.97;;;6.40;68.00;;;;;;6335960;28;20791;-57
2021/12/30 03:11:42;;;;;;;24.83;19.80;;;6.40;68.00;;;;;;6337309;27;20293;-57
2021/12/30 03:14:44;;;;;;;25.17;19.73;;;6.40;68.10;;;;;;6335765;28;20273;-57
2021/12/30 03:17:48;;;;;;;26.07;19.50;;;6.40;68.00;;;;;;6341424;27;20240;-57
2021/12/30 03:20:51;;;;;;;28.67;20.47;;;6.60;68.90;;;;;;6341732;27;20243;-57
2021/12/30 03:23:58;;;;;;;26.10;20.00;;;6.50;68.10;;;;;;6333868;28;20663;-57
2021/12/30 03:27:01;;;;;;;24.27;19.00;;;6.60;68.20;;;;;;6329325;28;20283;-57
2021/12/30 03:30:06;;;;;;;27.43;19.63;;;6.40;68.00;;;;;;6321609;28;20239;-58
2021/12/30 03:33:08;;;;;;;24.80;18.90;;;6.80;68.40;;;;;;6328872;27;20359;-56
2021/12/30 03:36:13;;;;;;;24.97;19.83;;;6.60;68.20;;;;;;6337060;27;20305;-56
2021/12/30 03:39:17;;;;;;;24.30;19.20;;;6.60;68.20;;;;;;6336211;27;20735;-56
2021/12/30 03:42:20;;;;;;;23.27;18.60;;;6.60;68.20;;;;;;6333674;27;20301;-56
2021/12/30 03:45:24;;;;;;;24.90;19.10;;;6.70;68.20;;;;;;6336470;28;20319;-57
2021/12/30 03:48:33;;;;;;;23.07;18.77;;;6.70;68.30;;;;;;6333272;27;20404;-58
2021/12/30 03:51:38;;;;;;;23.50;18.07;;;6.70;68.30;;;;;;6343548;27;20236;-57
2021/12/30 03:54:43;;;;;;;26.17;17.67;;;6.70;68.30;;;;;;6342290;27;20239;-57
2021/12/30 03:57:46;;;;;;;21.60;18.53;;;6.70;68.30;;;;;;6336016;28;20250;-57
2021/12/30 04:00:49;;;;;;;20.53;17.00;;;6.90;68.00;;;;;;6337063;27;20705;-57
2021/12/30 04:03:53;;;;;;;24.27;18.73;;;6.80;68.00;;;;;;6334337;27;20247;-57
2021/12/30 04:06:55;;;;;;;23.40;17.40;;;6.80;67.70;;;;;;6334151;27;20618;-57
2021/12/30 04:09:59;;;;;;;20.93;17.97;;;6.90;68.00;;;;;;6336051;28;20258;-57
2021/12/30 04:13:02;;;;;;;23.17;18.37;;;6.90;68.00;;;;;;6334675;27;20289;-58
2021/12/30 04:16:06;;;;;;;20.97;17.13;;;6.90;67.90;;;;;;6334748;28;20270;-57
2021/12/30 04:19:09;;;;;;;24.50;17.73;;;6.90;67.80;;;;;;6351526;27;20268;-58
2021/12/30 04:22:14;;;;;;;25.47;17.47;;;7.00;67.60;;;;;;6336038;27;20379;-56
2021/12/30 04:25:18;;;;;;;27.67;16.30;;;7.00;67.10;;;;;;6337815;27;20235;-56
2021/12/30 04:28:21;;;;;;;30.27;18.93;;;7.20;67.10;;;;;;6335528;28;20231;-57
2021/12/30 04:31:24;;;;;;;28.60;18.03;;;7.20;67.60;;;;;;6322376;28;20262;-57
2021/12/30 04:34:27;;;;;;;32.60;17.87;;;7.40;66.60;;;;;;6328435;28;20247;-56
2021/12/30 04:37:30;;;;;;;36.60;18.93;;;7.40;67.10;;;;;;6334870;27;20246;-56
2021/12/30 04:40:34;;;;;;;33.23;19.13;;;7.60;67.10;;;;;;6325476;28;20751;-56
2021/12/30 04:43:36;;;;;;;36.63;20.33;;;7.60;67.20;;;;;;6327928;28;20316;-57
2021/12/30 04:46:39;;;;;;;35.90;19.20;;;7.70;67.50;;;;;;6331180;28;20477;-57
2021/12/30 04:49:42;;;;;;;43.30;20.77;;;7.70;67.60;;;;;;6331394;27;20235;-56
2021/12/30 04:52:44;;;;;;;37.53;20.40;;;7.70;67.70;;;;;;6327564;27;20224;-58
2021/12/30 04:55:50;;;;;;;42.93;21.13;;;7.90;67.90;;;;;;6329286;27;20274;-57
2021/12/30 04:58:53;;;;;;;40.67;21.33;;;7.80;68.00;;;;;;6323108;27;20786;-58
2021/12/30 05:01:58;;;;;;;46.40;22.50;;;7.90;68.30;;;;;;6325508;27;20490;-56
2021/12/30 05:05:01;;;;;;;42.37;21.57;;;7.90;68.30;;;;;;6329223;28;20255;-57
2021/12/30 05:08:04;;;;;;;42.80;22.07;;;7.90;68.30;;;;;;6322685;27;20698;-57
2021/12/30 05:11:09;;;;;;;42.67;22.60;;;8.00;68.70;;;;;;6329723;27;20232;-56
2021/12/30 05:14:13;;;;;;;44.83;21.87;;;7.90;68.50;;;;;;6328771;27;20236;-58
2021/12/30 05:17:16;;;;;;;53.23;23.77;;;8.00;68.80;;;;;;6328937;28;20310;-57
2021/12/30 05:20:19;;;;;;;50.50;23.97;;;8.00;68.70;;;;;;6338200;27;20810;-56
2021/12/30 05:23:21;;;;;;;44.97;23.63;;;8.00;68.70;;;;;;6331119;27;20573;-58
2021/12/30 05:26:27;;;;;;;46.97;24.63;;;8.00;68.50;;;;;;6327855;28;20582;-59
2021/12/30 05:29:30;;;;;;;38.90;22.50;;;8.10;68.60;;;;;;6328026;28;20433;-57
2021/12/30 05:32:34;;;;;;;44.10;21.97;;;8.10;68.90;;;;;;6320917;28;20366;-59
2021/12/30 05:35:37;;;;;;;46.73;24.53;;;8.10;69.10;;;;;;6321649;28;20285;-56
2021/12/30 05:38:40;;;;;;;43.87;23.10;;;8.10;69.00;;;;;;6322084;28;20327;-57
2021/12/30 05:41:44;;;;;;;48.23;24.07;;;8.20;69.20;;;;;;6325429;28;20389;-57
2021/12/30 05:44:46;;;;;;;44.60;22.97;;;8.20;69.00;;;;;;6327501;28;20769;-57
2021/12/30 05:47:51;;;;;;;51.47;24.23;;;8.20;69.50;;;;;;6323324;28;20295;-57
2021/12/30 05:50:59;;;;;;;47.20;22.50;;;8.20;69.50;;;;;;6331628;28;20293;-57
2021/12/30 05:54:02;;;;;;;40.33;22.97;;;8.30;69.60;;;;;;6330619;28;20320;-57
2021/12/30 05:57:06;;;;;;;45.17;24.17;;;8.20;69.50;;;;;;6326444;28;20322;-58
2021/12/30 06:00:12;;;;;;;41.50;22.70;;;8.30;69.60;;;;;;6320583;28;20515;-57
2021/12/30 06:03:19;;;;;;;37.07;22.33;;;8.30;69.60;;;;;;6333005;28;20745;-57
2021/12/30 06:06:21;;;;;;;42.43;23.93;;;8.40;69.70;;;;;;6325989;28;20862;-57
2021/12/30 06:09:25;;;;;;;42.50;22.70;;;8.40;69.70;;;;;;6329814;28;20533;-56
2021/12/30 06:12:30;;;;;;;43.47;23.40;;;8.40;69.70;;;;;;6321600;28;20310;-57
2021/12/30 06:15:32;;;;;;;40.10;22.90;;;8.40;69.70;;;;;;6332809;28;20289;-57
2021/12/30 06:18:35;;;;;;;39.50;21.80;;;8.50;69.80;;;;;;6331399;28;20398;-57
2021/12/30 06:21:38;;;;;;;41.20;22.63;;;8.50;69.80;;;;;;6330877;28;20231;-57
2021/12/30 06:24:41;;;;;;;40.77;22.03;;;8.50;69.80;;;;;;6332794;28;20228;-56
2021/12/30 06:27:45;;;;;;;39.80;22.33;;;8.50;69.80;;;;;;6333240;28;20311;-57
2021/12/30 06:30:48;;;;;;;43.00;21.83;;;8.60;69.90;;;;;;6325963;28;20262;-57
2021/12/30 06:33:51;;;;;;;44.90;22.37;;;8.60;69.90;;;;;;6329793;28;20284;-58
2021/12/30 06:36:54;;;;;;;33.40;21.63;;;8.50;69.80;;;;;;6324087;28;20923;-58
2021/12/30 06:39:57;;;;;;;38.40;20.63;;;8.50;69.80;;;;;;6321627;28;20627;-58
2021/12/30 06:43:01;;;;;;;38.77;20.57;;;8.50;69.80;;;;;;6326975;28;20374;-58
2021/12/30 06:46:05;;;;;;;40.40;20.80;;;8.40;69.70;;;;;;6328611;28;20665;-58
2021/12/30 06:49:09;;;;;;;34.17;18.93;;;8.40;69.70;;;;;;6326408;28;20224;-58
2021/12/30 06:52:13;;;;;;;36.63;19.67;;;8.40;69.70;;;;;;6322746;28;20253;-58
2021/12/30 06:55:16;;;;;;;32.10;18.63;;;8.40;69.70;;;;;;6329976;28;20239;-59
2021/12/30 06:58:21;;;;;;;38.83;20.33;;;8.30;69.60;;;;;;6327625;27;20235;-57
2021/12/30 07:01:24;;;;;;;32.87;19.23;;;8.30;69.60;;;;;;6323520;28;20278;-57
2021/12/30 07:04:27;;;;;;;33.57;19.77;;;8.30;69.60;;;;;;6333346;27;20253;-57
2021/12/30 07:07:30;;;;;;;36.90;20.00;;;8.20;69.50;;;;;;6327409;28;20243;-58
2021/12/30 07:10:33;;;;;;;38.53;20.47;;;8.20;69.50;;;;;;6328851;28;20319;-59
2021/12/30 07:13:37;;;;;;;42.20;19.30;;;8.20;69.50;;;;;;6333859;27;20428;-58
2021/12/30 07:16:40;;;;;;;34.57;18.53;;;8.20;69.50;;;;;;6329847;27;20321;-59
2021/12/30 07:19:42;;;;;;;39.33;19.30;;;8.20;69.50;;;;;;6331919;28;20276;-62
2021/12/30 07:22:45;;;;;;;34.97;19.03;;;8.10;69.40;;;;;;6332744;27;20473;-57
2021/12/30 07:25:52;;;;;;;40.20;19.70;;;8.10;69.20;;;;;;6332142;27;20658;-58
2021/12/30 07:28:56;;;;;;;35.93;18.73;;;8.20;69.00;;;;;;6331526;27;20247;-57
2021/12/30 07:31:59;;;;;;;44.63;18.13;;;8.20;69.00;;;;;;6327760;28;20232;-58
2021/12/30 07:35:02;;;;;;;34.73;19.53;;;8.20;69.00;;;;;;6328718;27;20380;-58
2021/12/30 07:38:05;;;;;;;29.77;18.37;;;8.30;69.10;;;;;;6326863;28;20232;-58
2021/12/30 07:41:08;;;;;;;28.57;18.50;;;8.20;68.90;;;;;;6327454;28;20335;-58
2021/12/30 07:44:12;;;;;;;35.43;18.93;;;8.30;69.10;;;;;;6332216;27;20230;-58
2021/12/30 07:47:14;;;;;;;37.30;17.93;;;8.30;69.20;;;;;;6332639;28;20334;-57
2021/12/30 07:50:17;;;;;;;32.73;18.20;;;8.40;69.50;;;;;;6332207;28;20224;-57
2021/12/30 07:53:21;;;;;;;36.73;18.03;;;8.40;69.30;;;;;;6339772;27;20369;-58
2021/12/30 07:56:24;;;;;;;30.93;18.07;;;8.40;69.70;;;;;;6329490;27;20283;-57
2021/12/30 07:59:32;;;;;;;30.17;18.20;;;8.40;69.70;;;;;;6336570;27;20556;-57
2021/12/30 08:02:34;;;;;;;39.70;18.63;;;8.40;69.70;;;;;;6330513;28;20516;-59
2021/12/30 08:05:37;;;;;;;33.00;17.10;;;8.40;69.70;;;;;;6332096;28;20315;-56
2021/12/30 08:08:40;;;;;;;41.13;17.77;;;8.40;69.70;;;;;;6327670;28;20331;-59
2021/12/30 08:11:44;;;;;;;29.47;17.10;;;8.40;69.70;;;;;;6324899;27;20236;-58
2021/12/30 08:14:48;;;;;;;31.17;17.97;;;8.40;69.60;;;;;;6330860;28;20684;-57
2021/12/30 08:17:51;;;;;;;37.40;18.53;;;8.40;69.60;;;;;;6333119;28;20747;-62
2021/12/30 08:20:56;;;;;;;42.23;18.37;;;8.40;69.30;;;;;;6327279;28;20270;-58
2021/12/30 08:23:59;;;;;;;38.07;18.30;;;8.50;69.40;;;;;;6326565;28;20497;-58
2021/12/30 08:27:02;;;;;;;36.63;18.23;;;8.60;69.80;;;;;;6332243;28;20358;-57
2021/12/30 08:30:09;;;;;;;28.83;16.17;;;8.60;69.80;;;;;;6333871;27;20319;-59
2021/12/30 08:33:12;;;;;;;33.97;17.23;;;8.60;69.80;;;;;;6321770;28;20611;-57
2021/12/30 08:36:15;;;;;;;32.00;16.87;;;8.70;69.90;;;;;;6331263;28;20530;-59
2021/12/30 08:39:18;;;;;;;26.70;16.87;;;8.70;69.90;;;;;;6325462;28;20232;-59
2021/12/30 08:42:23;;;;;;;28.97;17.47;;;8.70;70.00;;;;;;6328090;27;20614;-57
2021/12/30 08:45:27;;;;;;;34.83;17.50;;;8.70;69.80;;;;;;6332598;27;20311;-56
2021/12/30 08:48:30;;;;;;;33.63;17.90;;;8.70;69.90;;;;;;6328296;27;20236;-58
2021/12/30 08:51:33;;;;;;;35.37;18.47;;;8.70;69.80;;;;;;6333778;28;20262;-57
2021/12/30 08:54:36;;;;;;;30.53;18.03;;;8.70;69.80;;;;;;6329573;28;20229;-57
2021/12/30 08:57:41;;;;;;;33.63;17.70;;;8.70;69.80;;;;;;6326359;27;20710;-57
2021/12/30 09:00:47;;;;;;;33.97;17.17;;;8.70;69.80;;;;;;6314692;28;20757;-58
2021/12/30 09:03:50;;;;;;;31.27;17.57;;;8.80;69.80;;;;;;6321871;28;21025;-58
2021/12/30 09:06:53;;;;;;;29.63;17.30;;;8.80;69.80;;;;;;6327665;27;20239;-58
2021/12/30 09:09:58;;;;;;;29.67;17.53;;;8.80;69.80;;;;;;6324817;27;20697;-57
2021/12/30 09:13:01;;;;;;;35.63;16.90;;;8.90;69.90;;;;;;6318073;27;20226;-59
2021/12/30 09:16:07;;;;;;;39.07;18.43;;;8.90;69.80;;;;;;6309853;27;20349;-57
2021/12/30 09:19:10;;;;;;;30.87;16.97;;;8.90;69.70;;;;;;6323621;27;20311;-59
2021/12/30 09:22:13;;;;;;;33.70;17.50;;;9.00;69.80;;;;;;6337339;27;20228;-56
2021/12/30 09:25:19;;;;;;;31.00;17.10;;;9.00;69.80;;;;;;6333728;27;20310;-57
2021/12/30 09:28:24;;;;;;;39.07;17.93;;;9.10;69.80;;;;;;6319809;28;20247;-58
2021/12/30 09:31:28;;;;;;;31.80;17.70;;;9.10;69.60;;;;;;6332588;28;20305;-58
2021/12/30 09:34:32;;;;;;;27.63;15.57;;;9.10;69.60;;;;;;6328427;28;20298;-57
2021/12/30 09:37:34;;;;;;;28.60;15.83;;;9.20;69.60;;;;;;6331149;28;20315;-57
2021/12/30 09:40:37;;;;;;;25.33;16.97;;;9.20;69.60;;;;;;6326393;27;20239;-57
2021/12/30 09:43:40;;;;;;;26.57;17.00;;;9.20;69.30;;;;;;6327341;27;20519;-56
2021/12/30 09:46:46;;;;;;;28.37;16.20;;;9.20;69.30;;;;;;6324676;28;20341;-59
2021/12/30 09:49:50;;;;;;;28.23;15.67;;;9.20;69.10;;;;;;6326935;28;20386;-59
2021/12/30 09:52:54;;;;;;;27.37;16.60;;;9.20;68.90;;;;;;6324713;27;20267;-58
2021/12/30 09:55:58;;;;;;;29.47;15.47;;;9.20;68.90;;;;;;6325864;28;20315;-58
2021/12/30 09:59:01;;;;;;;24.87;14.83;;;9.20;68.80;;;;;;6324114;28;20835;-58
2021/12/30 10:02:05;;;;;;;25.90;15.87;;;9.20;68.90;;;;;;6326051;28;20228;-57
2021/12/30 10:05:12;;;;;;;29.17;15.53;;;9.20;68.60;;;;;;6333100;28;20723;-54
2021/12/30 10:08:17;;;;;;;26.13;14.17;;;9.20;68.60;;;;;;6331293;28;20553;-58
2021/12/30 10:11:20;;;;;;;27.27;15.13;;;9.20;68.90;;;;;;6330699;28;20323;-58
2021/12/30 10:14:28;;;;;;;25.57;16.47;;;9.20;68.90;;;;;;6331599;27;20240;-58
2021/12/30 10:17:32;;;;;;;24.67;16.27;;;9.20;68.60;;;;;;6325812;28;20229;-58
2021/12/30 10:20:39;;;;;;;24.20;15.20;;;9.20;68.70;;;;;;6327505;28;20509;-58
2021/12/30 10:23:44;;;;;;;32.73;16.70;;;9.30;68.70;;;;;;6333283;28;20232;-57
2021/12/30 10:26:52;;;;;;;26.00;15.63;;;9.20;68.20;;;;;;6332238;28;20376;-58
2021/12/30 10:29:57;;;;;;;26.60;15.77;;;9.30;68.20;;;;;;6324826;28;20242;-56
2021/12/30 10:33:12;;;;;;;22.10;13.90;;;9.20;68.00;;;;;;6329346;28;20240;-57
2021/12/30 10:36:16;;;;;;;27.03;15.40;;;9.30;68.20;;;;;;6331428;27;20515;-57
2021/12/30 10:39:22;;;;;;;22.70;15.27;;;9.30;68.00;;;;;;6330073;28;20352;-56
2021/12/30 10:42:30;;;;;;;24.70;13.97;;;9.30;68.00;;;;;;6330968;28;20240;-57
2021/12/30 10:45:33;;;;;;;22.67;14.10;;;9.40;67.90;;;;;;6335950;27;20250;-59
2021/12/30 10:48:50;;;;;;;20.87;14.33;;;9.40;67.30;;;;;;6337668;27;20231;-58
2021/12/30 10:51:55;;;;;;;29.23;14.37;;;9.40;67.50;;;;;;6333251;27;20708;-58
2021/12/30 10:54:59;;;;;;;28.60;15.53;;;9.30;67.30;;;;;;6330973;28;20523;-59
2021/12/30 10:58:27;;;;;;;26.37;14.00;;;9.30;67.50;;;;;;6337453;27;20330;-57
2021/12/30 11:01:36;;;;;;;18.80;13.00;;;9.30;67.60;;;;;;6329348;27;20258;-59
2021/12/30 11:04:42;;;;;;;24.30;13.93;;;9.40;67.80;;;;;;6335389;27;20807;-59
2021/12/30 11:07:47;;;;;;;20.17;13.93;;;9.50;66.90;;;;;;6331537;27;20339;-59
2021/12/30 11:10:49;;;;;;;25.20;13.77;;;9.50;67.00;;;;;;6329076;27;20432;-56
2021/12/30 11:14:02;;;;;;;24.57;13.00;;;9.50;67.40;;;;;;6340413;27;20469;-57
2021/12/30 11:17:13;;;;;;;23.00;13.23;;;9.50;67.40;;;;;;6330839;28;20232;-57
2021/12/30 11:20:23;;;;;;;20.00;13.60;;;9.50;67.20;;;;;;6328747;28;20724;-61
2021/12/30 11:23:26;;;;;;;20.37;12.40;;;9.70;66.70;;;;;;6334698;28;20737;-57
2021/12/30 11:26:29;;;;;;;20.73;12.17;;;9.50;66.50;;;;;;6330270;28;20263;-59
2021/12/30 11:29:35;;;;;;;17.50;13.27;;;9.60;66.50;;;;;;6330286;28;20238;-57
2021/12/30 11:32:39;;;;;;;19.57;12.23;;;9.60;66.00;;;;;;6334093;27;20231;-57
2021/12/30 11:35:42;;;;;;;14.83;10.93;;;9.60;66.20;;;;;;6324424;28;20380;-57
2021/12/30 11:38:45;;;;;;;17.13;13.20;;;9.60;66.30;;;;;;6328969;27;20235;-58
2021/12/30 11:41:54;;;;;;;20.80;13.20;;;9.60;65.90;;;;;;6334892;28;20265;-59
2021/12/30 11:45:01;;;;;;;24.00;14.23;;;9.60;65.90;;;;;;6328598;27;20688;-57
2021/12/30 11:48:06;;;;;;;19.17;12.60;;;9.60;66.00;;;;;;6334773;27;20269;-57
2021/12/30 11:51:11;;;;;;;17.00;12.87;;;9.60;65.80;;;;;;6335521;27;20761;-59
2021/12/30 11:54:34;;;;;;;20.63;13.63;;;9.70;65.50;;;;;;6332863;28;20326;-59
2021/12/30 11:57:36;;;;;;;24.87;13.43;;;9.80;65.90;;;;;;6331617;28;20295;-58
2021/12/30 12:00:40;;;;;;;18.57;13.17;;;9.70;64.70;;;;;;6335367;27;20236;-57
2021/12/30 12:03:45;;;;;;;21.53;13.03;;;9.80;65.10;;;;;;6333706;28;20243;-59
2021/12/30 12:07:08;;;;;;;23.87;13.80;;;9.80;65.00;;;;;;6333913;28;20236;-59
2021/12/30 12:10:18;;;;;;;21.97;13.73;;;9.80;65.70;;;;;;6330196;28;20858;-59
2021/12/30 12:13:34;;;;;;;22.30;13.40;;;9.90;66.10;;;;;;6332131;28;20252;-58
2021/12/30 12:16:51;;;;;;;22.17;13.67;;;9.80;66.30;;;;;;6332659;27;20288;-58
2021/12/30 12:19:55;;;;;;;22.20;13.43;;;9.80;66.90;;;;;;6325203;28;20621;-58
2021/12/30 12:22:58;;;;;;;26.87;14.30;;;9.80;67.40;;;;;;6335219;28;20254;-57
2021/12/30 12:26:09;;;;;;;21.67;13.37;;;9.80;67.70;;;;;;6334486;28;20238;-58
2021/12/30 12:29:23;;;;;;;20.93;14.10;;;9.80;67.90;;;;;;6329255;28;20265;-57
2021/12/30 12:32:37;;;;;;;25.00;14.07;;;9.80;68.00;;;;;;6329781;28;20311;-57
2021/12/30 12:35:41;;;;;;;22.97;13.83;;;9.90;68.60;;;;;;6333617;27;20722;-58
2021/12/30 12:38:45;;;;;;;22.00;14.20;;;9.90;68.50;;;;;;6325240;27;21100;-58
2021/12/30 12:41:53;;;;;;;22.67;14.00;;;9.90;68.50;;;;;;6327661;28;20235;-57
2021/12/30 12:45:17;;;;;;;21.83;13.77;;;9.90;68.80;;;;;;6329397;28;20714;-57
2021/12/30 12:48:29;;;;;;;20.43;13.20;;;9.90;68.80;;;;;;6334206;27;20244;-58
2021/12/30 12:51:31;;;;;;;30.43;13.83;;;9.90;68.90;;;;;;6332515;27;20364;-56
2021/12/30 12:54:36;;;;;;;19.03;12.97;;;9.90;68.80;;;;;;6335080;27;20230;-58
2021/12/30 12:57:41;;;;;;;26.50;14.53;;;9.90;69.00;;;;;;6333266;28;20263;-57
2021/12/30 13:00:44;;;;;;;24.77;12.87;;;9.90;69.20;;;;;;6332376;27;20232;-56
2021/12/30 13:03:49;;;;;;;23.20;14.20;;;9.90;69.10;;;;;;6334250;27;20275;-55
2021/12/30 13:06:59;;;;;;;21.50;12.83;;;9.90;69.20;;;;;;6333679;27;20331;-57
2021/12/30 13:10:02;;;;;;;19.17;12.93;;;9.90;69.50;;;;;;6333516;27;20235;-55
2021/12/30 13:13:05;;;;;;;27.27;12.97;;;9.90;69.60;;;;;;6332946;28;20909;-56
2021/12/30 13:16:22;;;;;;;19.87;12.73;;;9.90;69.50;;;;;;6326509;28;20235;-57
2021/12/30 13:19:29;;;;;;;19.67;12.73;;;9.90;69.70;;;;;;6330647;28;20228;-56
2021/12/30 13:22:32;;;;;;;21.07;12.60;;;9.90;69.70;;;;;;6332359;28;20453;-57
2021/12/30 13:25:35;;;;;;;16.90;11.77;;;10.00;69.00;;;;;;6333080;27;20231;-57
2021/12/30 13:28:48;;;;;;;14.73;12.07;;;9.90;70.70;;;;;;6320924;28;20243;-58
2021/12/30 13:32:01;;;;;;;18.27;12.27;;;9.90;70.10;;;;;;6329655;28;20260;-56
2021/12/30 13:35:08;;;;;;;14.63;11.57;;;9.90;70.20;;;;;;6330374;27;20353;-56
2021/12/30 13:38:11;;;;;;;16.33;10.87;;;9.90;70.20;;;;;;6326311;28;20610;-55
2021/12/30 13:41:16;;;;;;;14.93;11.40;;;10.00;69.40;;;;;;6326693;28;20286;-56
2021/12/30 13:44:21;;;;;;;17.30;11.80;;;10.10;69.50;;;;;;6332058;28;20308;-55
2021/12/30 13:47:26;;;;;;;12.87;10.50;;;10.00;69.50;;;;;;6332326;28;20347;-57
2021/12/30 13:50:31;;;;;;;13.53;10.47;;;10.10;69.60;;;;;;6333079;27;20735;-57
2021/12/30 13:53:36;;;;;;;13.83;10.23;;;10.20;69.70;;;;;;6329078;28;20409;-56
2021/12/30 13:56:43;;;;;;;13.07;9.93;;;10.20;69.70;;;;;;6324245;28;20662;-56
2021/12/30 13:59:45;;;;;;;12.13;10.30;;;10.20;69.80;;;;;;6325473;28;20561;-57
2021/12/30 14:03:00;;;;;;;18.30;11.47;;;10.20;69.80;;;;;;6335445;27;20307;-57
2021/12/30 14:06:10;;;;;;;15.67;11.30;;;10.10;70.30;;;;;;6326345;28;20327;-57
2021/12/30 14:09:15;;;;;;;14.97;10.63;;;10.00;69.50;;;;;;6339447;27;20223;-57
2021/12/30 14:12:18;;;;;;;13.33;9.77;;;10.10;69.70;;;;;;6337930;28;20401;-57
2021/12/30 14:15:22;;;;;;;16.10;10.57;;;10.10;70.00;;;;;;6335442;27;20250;-57
2021/12/30 14:18:29;;;;;;;12.87;10.50;;;10.10;69.80;;;;;;6334717;28;20242;-57
2021/12/30 14:21:35;;;;;;;12.33;10.60;;;10.20;69.90;;;;;;6337083;27;20332;-57
2021/12/30 14:24:40;;;;;;;14.63;10.70;;;10.20;69.90;;;;;;6334471;27;20236;-56
2021/12/30 14:27:43;;;;;;;13.03;11.17;;;10.30;70.00;;;;;;6333586;27;20288;-56
2021/12/30 14:30:46;;;;;;;12.27;11.10;;;10.30;70.10;;;;;;6332786;28;20228;-57
2021/12/30 14:34:02;;;;;;;12.60;11.20;;;10.40;70.10;;;;;;6334678;27;20231;-57
2021/12/30 14:37:12;;;;;;;13.63;11.07;;;10.30;70.00;;;;;;6322983;27;20235;-57
2021/12/30 14:40:18;;;;;;;13.13;10.57;;;10.30;70.20;;;;;;6328493;28;20255;-56
2021/12/30 14:43:21;;;;;;;13.27;10.57;;;10.30;70.00;;;;;;6332716;27;20238;-56
2021/12/30 14:46:26;;;;;;;11.87;10.33;;;10.40;70.10;;;;;;6335484;27;20240;-57
2021/12/30 14:49:29;;;;;;;15.10;11.10;;;10.40;70.00;;;;;;6338127;27;20236;-57
2021/12/30 14:52:38;;;;;;;14.07;10.60;;;10.50;70.10;;;;;;6333925;28;20759;-56
2021/12/30 14:55:42;;;;;;;14.83;10.63;;;10.40;70.00;;;;;;6334695;28;20244;-58
2021/12/30 14:58:45;;;;;;;11.60;10.13;;;10.50;69.70;;;;;;6329962;28;20319;-58
2021/12/30 15:01:48;;;;;;;11.93;10.70;;;10.60;69.70;;;;;;6335266;28;20276;-56
2021/12/30 15:04:51;;;;;;;13.13;10.23;;;10.60;70.20;;;;;;6329305;27;20232;-57
2021/12/30 15:07:56;;;;;;;12.30;10.07;;;10.50;70.70;;;;;;6331314;27;20483;-58
2021/12/30 15:10:59;;;;;;;13.70;9.67;;;10.60;69.80;;;;;;6337651;27;20239;-59
2021/12/30 15:14:02;;;;;;;11.53;9.77;;;10.70;69.40;;;;;;6334878;27;20265;-58
2021/12/30 15:17:04;;;;;;;10.43;9.50;;;10.80;69.80;;;;;;6328007;28;20430;-57
2021/12/30 15:20:10;;;;;;;8.53;7.87;;;10.80;69.50;;;;;;6333245;28;20240;-57
2021/12/30 15:23:17;;;;;;;8.53;7.83;;;10.90;69.00;;;;;;6323123;28;20262;-58
2021/12/30 15:26:21;;;;;;;8.53;7.93;;;11.00;69.30;;;;;;6320223;28;20280;-55
2021/12/30 15:29:23;;;;;;;8.00;7.30;;;11.10;69.00;;;;;;6327860;28;20696;-57
2021/12/30 15:32:27;;;;;;;7.70;7.03;;;11.20;69.60;;;;;;6332435;27;20228;-57
2021/12/30 15:35:31;;;;;;;8.80;7.80;;;11.20;69.70;;;;;;6335939;28;20231;-59
2021/12/30 15:38:35;;;;;;;6.83;6.43;;;11.20;69.50;;;;;;6333474;27;20236;-56
2021/12/30 15:41:41;;;;;;;7.80;7.30;;;11.30;69.40;;;;;;6323121;28;20241;-57
2021/12/30 15:44:46;;;;;;;7.13;6.43;;;11.40;69.30;;;;;;6323474;28;20495;-57
2021/12/30 15:47:49;;;;;;;7.30;6.77;;;11.40;69.60;;;;;;6328369;28;20315;-57